Time;durP1;ratioP1;P1;durP2;ratioP2;P2;SDS_P1;SDS_P2;PMS_P1;PMS_P2;Temp;Humidity;BMP_temperature;BMP_pressure;BME280_temperature;BME280_humidity;BME280_pressure;Samples;Min_cycle;Max_cycle;Signal;HPM_P1;HPM_P2
2021/03/17 00:00:36;;;;;;;7.90;3.53;;;6.40;99.90;;;;;;5113599;28;20488;-65
2021/03/17 00:03:03;;;;;;;9.50;3.20;;;6.40;99.90;;;;;;5114294;28;21021;-65
2021/03/17 00:05:32;;;;;;;12.97;3.77;;;6.30;99.90;;;;;;5113878;28;20483;-66
2021/03/17 00:07:59;;;;;;;13.17;3.87;;;6.30;99.90;;;;;;5113445;28;20487;-67
2021/03/17 00:10:27;;;;;;;8.40;3.73;;;6.40;99.90;;;;;;5113797;28;20878;-65
2021/03/17 00:12:54;;;;;;;11.83;4.57;;;6.30;99.90;;;;;;5113888;28;20697;-65
2021/03/17 00:15:22;;;;;;;12.10;4.43;;;6.30;99.90;;;;;;5113993;28;20826;-66
2021/03/17 00:17:49;;;;;;;7.53;3.40;;;6.10;99.90;;;;;;5113287;28;21005;-66
2021/03/17 00:20:16;;;;;;;10.43;4.40;;;6.10;99.90;;;;;;5113057;28;21092;-66
2021/03/17 00:22:43;;;;;;;14.63;4.70;;;6.10;99.90;;;;;;5114019;28;20488;-66
2021/03/17 00:25:10;;;;;;;11.70;4.33;;;6.10;99.90;;;;;;5113747;28;20454;-67
2021/03/17 00:27:37;;;;;;;11.63;4.10;;;6.10;99.90;;;;;;5113661;28;20456;-68
2021/03/17 00:30:05;;;;;;;9.27;3.87;;;6.10;99.90;;;;;;5113042;28;20548;-65
2021/03/17 00:32:32;;;;;;;12.90;4.83;;;6.20;99.90;;;;;;5113732;28;20459;-66
2021/03/17 00:34:58;;;;;;;9.47;3.97;;;6.20;99.90;;;;;;5113588;28;20455;-65
2021/03/17 00:37:25;;;;;;;13.57;4.70;;;6.20;99.90;;;;;;5113404;28;20458;-66
2021/03/17 00:39:51;;;;;;;11.13;4.10;;;6.20;99.90;;;;;;5113082;28;20535;-68
2021/03/17 00:42:58;;;;;;;10.70;3.33;;;6.20;99.90;;;;;;5113514;28;20583;-66
2021/03/17 00:45:24;;;;;;;10.00;4.40;;;6.20;99.90;;;;;;5113103;28;20447;-65
2021/03/17 00:47:52;;;;;;;9.90;3.97;;;6.20;99.90;;;;;;5112892;28;20531;-67
2021/03/17 00:50:19;;;;;;;9.93;3.67;;;6.20;99.90;;;;;;5120969;27;20476;-67
2021/03/17 00:52:46;;;;;;;8.97;3.73;;;6.20;99.90;;;;;;5113206;28;20452;-67
2021/03/17 00:55:13;;;;;;;9.30;3.90;;;6.20;99.90;;;;;;5113091;28;20499;-66
2021/03/17 00:57:40;;;;;;;11.50;4.10;;;6.20;99.90;;;;;;5112248;28;20473;-66
2021/03/17 01:00:08;;;;;;;10.03;4.47;;;6.20;99.90;;;;;;5112654;28;20858;-65
2021/03/17 01:02:35;;;;;;;9.50;4.50;;;6.10;99.90;;;;;;5128918;27;20591;-66
2021/03/17 01:05:32;;;;;;;13.73;5.70;;;6.20;99.90;;;;;;5112771;28;20453;-67
2021/03/17 01:07:59;;;;;;;8.67;4.00;;;6.10;99.90;;;;;;5110650;28;20494;-65
2021/03/17 01:10:31;;;;;;;10.10;4.57;;;6.10;99.90;;;;;;5112690;28;20486;-65
2021/03/17 01:12:58;;;;;;;9.63;3.87;;;6.10;99.90;;;;;;5112317;28;21045;-67
2021/03/17 01:15:24;;;;;;;13.57;4.83;;;6.00;99.90;;;;;;5112161;28;20954;-65
2021/03/17 01:17:51;;;;;;;7.90;3.93;;;6.10;99.90;;;;;;5108415;28;20884;-66
2021/03/17 01:20:20;;;;;;;8.87;4.23;;;6.10;99.90;;;;;;5111801;28;20539;-66
2021/03/17 01:22:47;;;;;;;10.63;4.07;;;6.20;99.90;;;;;;5111861;28;21064;-67
2021/03/17 01:25:15;;;;;;;12.53;4.37;;;6.20;99.90;;;;;;5112388;28;20898;-65
2021/03/17 01:27:42;;;;;;;13.70;4.27;;;6.10;99.90;;;;;;5103352;28;20453;-68
2021/03/17 01:30:11;;;;;;;13.27;6.17;;;6.20;99.90;;;;;;5112324;27;20457;-66
2021/03/17 01:32:37;;;;;;;9.93;4.73;;;6.30;99.90;;;;;;5112001;28;20463;-67
2021/03/17 01:35:07;;;;;;;11.90;5.30;;;6.20;99.90;;;;;;5112253;28;20527;-65
2021/03/17 01:37:33;;;;;;;11.10;5.83;;;6.20;99.90;;;;;;5112082;28;20514;-68
2021/03/17 01:40:01;;;;;;;18.10;6.30;;;6.10;99.90;;;;;;5112009;28;20541;-67
2021/03/17 01:42:27;;;;;;;11.03;4.53;;;6.10;99.90;;;;;;5105348;28;20510;-64
2021/03/17 01:44:53;;;;;;;15.20;5.47;;;6.10;99.90;;;;;;5112134;28;20452;-67
2021/03/17 01:47:19;;;;;;;11.17;5.43;;;6.10;99.90;;;;;;5112224;28;20451;-68
2021/03/17 01:49:46;;;;;;;11.77;6.47;;;6.20;99.90;;;;;;5112085;28;20452;-65
2021/03/17 01:52:12;;;;;;;12.20;6.07;;;6.10;99.90;;;;;;5111799;28;20458;-67
2021/03/17 01:54:38;;;;;;;10.90;6.43;;;6.20;99.90;;;;;;5106454;28;20453;-65
2021/03/17 01:57:06;;;;;;;14.83;6.73;;;6.20;99.90;;;;;;5106389;28;20453;-65
2021/03/17 01:59:35;;;;;;;10.83;6.03;;;6.20;99.90;;;;;;5114295;27;20452;-65
2021/03/17 02:02:02;;;;;;;11.33;5.90;;;6.20;99.90;;;;;;5116157;27;20479;-66
2021/03/17 02:04:29;;;;;;;13.63;7.27;;;6.30;99.90;;;;;;5130823;27;20505;-66
2021/03/17 02:06:55;;;;;;;9.60;5.70;;;6.10;99.90;;;;;;5117300;27;20535;-64
2021/03/17 02:09:21;;;;;;;13.40;8.00;;;6.20;99.90;;;;;;5112015;28;20453;-65
2021/03/17 02:11:55;;;;;;;12.47;5.63;;;6.20;99.90;;;;;;5111982;28;20606;-67
2021/03/17 02:14:38;;;;;;;12.37;5.80;;;6.20;99.90;;;;;;5111597;28;20448;-65
2021/03/17 02:17:11;;;;;;;12.27;5.87;;;6.20;99.90;;;;;;5112062;28;20445;-65
2021/03/17 02:20:19;;;;;;;10.50;5.40;;;6.10;99.90;;;;;;5111708;28;20452;-66
2021/03/17 02:22:49;;;;;;;9.97;5.30;;;6.20;99.90;;;;;;5112450;28;20488;-65
2021/03/17 02:25:48;;;;;;;12.23;5.50;;;6.20;99.90;;;;;;5113597;28;20463;-65
2021/03/17 02:28:24;;;;;;;11.33;5.80;;;6.20;99.90;;;;;;5111564;28;20460;-66
2021/03/17 02:31:24;;;;;;;13.70;7.10;;;6.10;99.90;;;;;;5117032;27;20455;-65
2021/03/17 02:33:58;;;;;;;12.60;6.70;;;6.10;99.90;;;;;;5115697;28;20445;-65
2021/03/17 02:36:31;;;;;;;9.57;5.33;;;6.00;99.90;;;;;;5115424;28;20427;-65
2021/03/17 02:39:04;;;;;;;14.90;8.10;;;6.00;99.90;;;;;;5115677;28;20456;-65
2021/03/17 02:41:36;;;;;;;13.93;6.73;;;6.00;99.90;;;;;;5115878;28;20487;-66
2021/03/17 02:44:06;;;;;;;12.47;7.70;;;6.00;99.90;;;;;;5114437;28;20445;-66
2021/03/17 02:46:33;;;;;;;12.10;7.43;;;5.90;99.90;;;;;;5115352;28;20448;-67
2021/03/17 02:49:05;;;;;;;11.90;7.37;;;6.00;99.90;;;;;;5115495;28;20813;-65
2021/03/17 02:51:35;;;;;;;16.57;8.50;;;6.00;99.90;;;;;;5115472;28;20448;-67
2021/03/17 02:54:03;;;;;;;14.63;8.67;;;6.10;99.90;;;;;;5114927;27;20457;-66
2021/03/17 02:56:36;;;;;;;17.33;8.33;;;5.90;99.90;;;;;;5115209;28;20455;-64
2021/03/17 02:59:03;;;;;;;15.33;9.93;;;6.00;99.90;;;;;;5115977;28;20858;-65
2021/03/17 03:01:32;;;;;;;14.10;8.80;;;6.00;99.90;;;;;;5116139;28;20449;-65
2021/03/17 03:04:00;;;;;;;13.37;8.90;;;5.90;99.90;;;;;;5132449;27;20467;-64
2021/03/17 03:06:27;;;;;;;15.33;8.10;;;5.80;99.90;;;;;;5113772;28;20451;-65
2021/03/17 03:08:54;;;;;;;14.70;9.57;;;5.70;99.90;;;;;;5115654;28;20543;-65
2021/03/17 03:11:21;;;;;;;14.60;8.87;;;5.70;99.90;;;;;;5112677;28;20452;-65
2021/03/17 03:13:50;;;;;;;14.67;8.53;;;5.70;99.90;;;;;;5115763;28;20464;-65
2021/03/17 03:16:16;;;;;;;15.77;9.83;;;5.50;99.90;;;;;;5113852;28;20449;-66
2021/03/17 03:18:48;;;;;;;14.20;8.90;;;5.40;99.90;;;;;;5117756;28;20438;-64
2021/03/17 03:21:18;;;;;;;12.57;7.37;;;5.40;99.90;;;;;;5118728;28;20471;-64
2021/03/17 03:23:47;;;;;;;15.20;11.30;;;5.50;99.90;;;;;;5121253;27;20452;-66
2021/03/17 03:26:14;;;;;;;13.30;7.40;;;5.60;99.90;;;;;;5115271;27;20435;-65
2021/03/17 03:28:41;;;;;;;11.17;6.83;;;5.50;99.90;;;;;;5105976;28;21006;-65
2021/03/17 03:31:07;;;;;;;12.90;7.03;;;5.50;99.90;;;;;;5115183;28;20784;-66
2021/03/17 03:33:34;;;;;;;12.80;8.10;;;5.50;99.90;;;;;;5113864;28;20455;-64
2021/03/17 03:36:00;;;;;;;11.30;6.53;;;5.60;99.90;;;;;;5114290;28;20451;-67
2021/03/17 03:38:27;;;;;;;11.60;6.17;;;5.50;99.90;;;;;;5114452;28;20452;-64
2021/03/17 03:40:54;;;;;;;11.20;5.23;;;5.60;99.90;;;;;;5114406;28;20453;-66
2021/03/17 03:43:20;;;;;;;9.53;4.90;;;5.60;99.90;;;;;;5114967;28;20491;-64
2021/03/17 03:45:47;;;;;;;8.70;4.60;;;5.60;99.90;;;;;;5113825;28;20513;-65
2021/03/17 03:48:13;;;;;;;8.23;4.17;;;5.50;99.90;;;;;;5114863;28;20998;-65
2021/03/17 03:50:42;;;;;;;9.53;3.93;;;5.50;99.90;;;;;;5113705;28;20477;-66
2021/03/17 03:53:15;;;;;;;8.50;4.80;;;5.40;99.90;;;;;;5128435;27;20455;-68
2021/03/17 03:55:54;;;;;;;10.03;4.03;;;5.40;99.90;;;;;;5099919;28;20472;-65
2021/03/17 03:58:28;;;;;;;7.40;3.70;;;5.40;99.90;;;;;;5101759;28;20487;-66
2021/03/17 04:01:02;;;;;;;8.73;3.43;;;5.40;99.90;;;;;;5113833;28;20524;-67
2021/03/17 04:03:32;;;;;;;8.43;3.63;;;5.50;99.90;;;;;;5114534;27;20850;-64
2021/03/17 04:05:59;;;;;;;8.53;3.23;;;5.50;99.90;;;;;;5127454;27;20795;-64
2021/03/17 04:08:26;;;;;;;6.87;2.80;;;5.40;99.90;;;;;;5116330;27;20476;-65
2021/03/17 04:10:56;;;;;;;6.33;2.77;;;5.40;99.90;;;;;;5114303;27;20452;-65
2021/03/17 04:13:24;;;;;;;6.93;2.70;;;5.50;99.90;;;;;;5110866;28;20993;-63
2021/03/17 04:15:55;;;;;;;6.80;2.73;;;5.50;99.90;;;;;;5106421;28;20450;-66
2021/03/17 04:18:22;;;;;;;8.87;3.67;;;5.40;99.90;;;;;;5114420;27;20468;-65
2021/03/17 04:20:52;;;;;;;7.50;2.83;;;5.40;99.90;;;;;;5129877;27;20492;-64
2021/03/17 04:23:23;;;;;;;7.63;2.73;;;5.40;99.90;;;;;;5104453;28;20491;-67
2021/03/17 04:25:52;;;;;;;8.60;3.70;;;5.50;99.90;;;;;;5112794;28;20535;-65
2021/03/17 04:28:22;;;;;;;7.27;3.10;;;5.30;99.90;;;;;;5113446;28;20474;-64
2021/03/17 04:30:50;;;;;;;9.33;3.17;;;5.30;99.90;;;;;;5113407;28;20455;-65
2021/03/17 04:33:19;;;;;;;6.10;2.23;;;5.40;99.90;;;;;;5105344;27;21094;-65
2021/03/17 04:35:47;;;;;;;6.77;2.90;;;5.30;99.90;;;;;;5123113;27;20451;-64
2021/03/17 04:38:14;;;;;;;7.00;2.83;;;5.30;99.90;;;;;;5115761;27;20461;-67
2021/03/17 04:40:42;;;;;;;8.40;3.17;;;5.30;99.90;;;;;;5110982;28;20457;-65
2021/03/17 04:43:10;;;;;;;8.33;3.20;;;5.40;99.90;;;;;;5121850;27;20502;-64
2021/03/17 04:45:38;;;;;;;7.53;3.67;;;5.40;99.90;;;;;;5106035;27;20548;-65
2021/03/17 04:48:06;;;;;;;8.40;3.80;;;5.40;99.90;;;;;;5110189;27;20454;-66
2021/03/17 04:50:34;;;;;;;8.77;3.80;;;5.40;99.90;;;;;;5112769;27;20553;-66
2021/03/17 04:53:01;;;;;;;10.70;4.37;;;5.40;99.90;;;;;;5119708;27;20451;-67
2021/03/17 04:55:28;;;;;;;9.90;3.87;;;5.50;99.90;;;;;;5108542;27;20554;-64
2021/03/17 04:57:55;;;;;;;8.00;3.50;;;5.40;99.90;;;;;;5112741;28;20456;-66
2021/03/17 05:00:23;;;;;;;7.07;3.60;;;5.50;99.90;;;;;;5105355;28;20446;-67
2021/03/17 05:02:53;;;;;;;8.07;3.80;;;5.50;99.90;;;;;;5106725;28;20485;-63
2021/03/17 05:05:20;;;;;;;9.00;4.60;;;5.50;99.90;;;;;;5112085;28;20451;-66
2021/03/17 05:07:48;;;;;;;8.07;4.17;;;5.50;99.90;;;;;;5110827;28;20446;-65
2021/03/17 05:10:15;;;;;;;8.87;3.90;;;5.30;99.90;;;;;;5113254;28;20461;-64
2021/03/17 05:12:42;;;;;;;8.07;4.27;;;5.40;99.90;;;;;;5104108;28;20444;-65
2021/03/17 05:15:10;;;;;;;9.07;4.40;;;5.40;99.90;;;;;;5108100;28;20878;-67
2021/03/17 05:17:38;;;;;;;7.10;3.87;;;5.40;99.90;;;;;;5108474;28;20449;-65
2021/03/17 05:20:09;;;;;;;9.50;4.37;;;5.50;99.90;;;;;;5112614;28;20453;-67
2021/03/17 05:22:36;;;;;;;8.50;4.33;;;5.50;99.90;;;;;;5110552;28;20483;-64
2021/03/17 05:25:05;;;;;;;7.33;4.03;;;5.50;99.90;;;;;;5112314;28;20464;-64
2021/03/17 05:27:34;;;;;;;8.10;4.13;;;5.50;99.90;;;;;;5108445;27;20960;-66
2021/03/17 05:30:02;;;;;;;7.70;4.37;;;5.50;99.90;;;;;;5120874;27;20444;-66
2021/03/17 05:32:29;;;;;;;10.53;6.87;;;5.50;99.90;;;;;;5108975;28;20454;-64
2021/03/17 05:34:58;;;;;;;11.40;6.53;;;5.60;99.90;;;;;;5112251;28;20929;-65
2021/03/17 05:37:26;;;;;;;9.63;5.70;;;5.50;99.90;;;;;;5110021;28;20496;-64
2021/03/17 05:39:53;;;;;;;10.13;5.83;;;5.40;99.90;;;;;;5111867;28;20451;-65
2021/03/17 05:42:20;;;;;;;10.60;6.97;;;5.50;99.90;;;;;;5112429;28;20513;-66
2021/03/17 05:44:47;;;;;;;10.00;5.90;;;5.40;99.90;;;;;;5111754;28;20448;-66
2021/03/17 05:47:14;;;;;;;10.77;6.30;;;5.50;99.90;;;;;;5111961;28;20453;-65
2021/03/17 05:49:40;;;;;;;10.70;6.70;;;5.40;99.90;;;;;;5110606;28;20444;-65
2021/03/17 05:52:08;;;;;;;9.30;5.37;;;5.50;99.90;;;;;;5111789;28;20463;-64
2021/03/17 05:54:36;;;;;;;10.77;6.00;;;5.50;99.90;;;;;;5104320;28;20596;-65
2021/03/17 05:57:03;;;;;;;10.07;5.10;;;5.40;99.90;;;;;;5108526;28;20543;-67
2021/03/17 05:59:31;;;;;;;10.87;6.37;;;5.40;99.90;;;;;;5113873;27;20442;-64
2021/03/17 06:01:58;;;;;;;6.83;1.50;;;5.40;99.90;;;;;;5107880;28;21016;-56
2021/03/17 06:04:26;;;;;;;9.87;5.30;;;7.50;99.90;;;;;;5111822;28;20441;-63
2021/03/17 06:06:56;;;;;;;8.60;4.77;;;7.30;99.90;;;;;;5109265;28;20834;-66
2021/03/17 06:09:23;;;;;;;10.57;5.77;;;6.90;99.90;;;;;;5120748;28;20865;-64
2021/03/17 06:11:51;;;;;;;9.27;4.60;;;6.40;99.90;;;;;;5126460;28;20442;-66
2021/03/17 06:14:20;;;;;;;6.30;2.60;;;5.80;99.90;;;;;;5116961;28;20435;-64
2021/03/17 06:16:50;;;;;;;7.47;2.63;;;5.40;99.90;;;;;;5116821;28;20452;-63
2021/03/17 06:19:19;;;;;;;8.27;2.60;;;5.00;99.90;;;;;;5112045;28;20452;-66
2021/03/17 06:21:46;;;;;;;7.73;2.30;;;4.80;99.90;;;;;;5128902;28;20443;-63
2021/03/17 06:24:13;;;;;;;8.47;2.33;;;4.80;99.90;;;;;;5115805;28;20976;-63
2021/03/17 06:26:40;;;;;;;8.60;2.30;;;4.50;99.90;;;;;;5118250;28;20448;-64
2021/03/17 06:29:07;;;;;;;7.07;2.53;;;4.30;99.90;;;;;;5111860;28;20447;-65
2021/03/17 06:31:34;;;;;;;14.60;2.80;;;4.30;99.90;;;;;;5112384;28;20946;-66
2021/03/17 06:34:00;;;;;;;10.50;3.63;;;4.10;99.90;;;;;;5128753;28;20531;-63
2021/03/17 06:36:27;;;;;;;9.07;2.90;;;4.00;99.90;;;;;;5111432;28;20461;-63
2021/03/17 06:39:07;;;;;;;7.90;2.10;;;4.00;99.90;;;;;;5116964;28;20465;-63
2021/03/17 06:41:49;;;;;;;14.67;3.57;;;4.10;99.90;;;;;;5106512;28;20475;-63
2021/03/17 06:44:21;;;;;;;11.43;3.00;;;4.00;99.90;;;;;;5105420;28;20449;-66
2021/03/17 06:47:18;;;;;;;10.23;3.57;;;4.10;99.90;;;;;;5109500;28;20441;-63
2021/03/17 06:49:45;;;;;;;9.57;3.07;;;4.30;99.90;;;;;;5110569;28;20494;-66
2021/03/17 06:52:32;;;;;;;10.93;3.77;;;4.40;99.90;;;;;;5111392;28;20444;-63
2021/03/17 06:55:12;;;;;;;7.93;2.33;;;4.60;99.90;;;;;;5113693;28;20485;-63
2021/03/17 06:57:41;;;;;;;10.87;2.93;;;4.80;99.90;;;;;;5111208;28;20445;-65
2021/03/17 07:00:32;;;;;;;10.03;3.53;;;4.90;99.90;;;;;;5127731;28;20463;-63
2021/03/17 07:03:01;;;;;;;13.17;3.50;;;4.90;99.90;;;;;;5091979;28;20491;-63
2021/03/17 07:05:41;;;;;;;11.63;2.93;;;4.80;99.90;;;;;;5111009;28;20434;-64
2021/03/17 07:08:10;;;;;;;8.53;2.53;;;5.00;99.90;;;;;;5099358;28;20508;-65
2021/03/17 07:10:39;;;;;;;8.00;2.57;;;5.20;99.90;;;;;;5109012;28;20446;-63
2021/03/17 07:13:07;;;;;;;9.77;2.70;;;5.30;99.90;;;;;;5109342;28;20451;-63
2021/03/17 07:15:35;;;;;;;9.70;2.03;;;5.50;99.90;;;;;;5113369;28;20514;-64
2021/03/17 07:18:19;;;;;;;8.07;1.80;;;5.60;99.90;;;;;;5112292;28;20529;-65
2021/03/17 07:20:48;;;;;;;8.00;2.33;;;5.50;99.90;;;;;;5110466;27;20452;-63
2021/03/17 07:23:29;;;;;;;13.40;2.67;;;5.70;99.90;;;;;;5113936;27;21049;-65
2021/03/17 07:26:17;;;;;;;15.33;3.07;;;5.80;99.90;;;;;;5112612;28;20972;-63
2021/03/17 07:29:02;;;;;;;10.50;2.40;;;5.70;99.90;;;;;;5112111;28;20455;-64
2021/03/17 07:31:31;;;;;;;9.60;2.27;;;5.70;99.90;;;;;;5112767;28;20826;-66
2021/03/17 07:34:14;;;;;;;11.90;2.43;;;5.70;99.90;;;;;;5097785;28;20460;-62
2021/03/17 07:36:45;;;;;;;9.47;1.80;;;5.60;99.90;;;;;;5095271;28;21048;-65
2021/03/17 07:39:17;;;;;;;9.50;2.40;;;5.70;99.90;;;;;;5105205;28;20448;-63
2021/03/17 07:41:44;;;;;;;9.40;2.00;;;5.90;99.90;;;;;;5103409;28;20455;-63
2021/03/17 07:44:12;;;;;;;7.47;2.30;;;6.10;99.90;;;;;;5099517;28;20537;-63
2021/03/17 07:46:41;;;;;;;14.30;2.50;;;6.30;99.90;;;;;;5111713;28;20462;-66
2021/03/17 07:49:09;;;;;;;8.87;2.17;;;6.50;99.90;;;;;;5111329;28;20464;-64
2021/03/17 07:51:40;;;;;;;12.13;4.23;;;6.70;99.90;;;;;;5111518;28;20493;-64
2021/03/17 07:54:08;;;;;;;9.00;2.20;;;7.00;99.90;;;;;;5106444;28;20465;-63
2021/03/17 07:56:35;;;;;;;6.57;1.83;;;7.30;99.90;;;;;;5108255;28;20494;-63
2021/03/17 07:59:02;;;;;;;12.73;2.27;;;7.60;99.90;;;;;;5108822;28;20467;-64
2021/03/17 08:01:29;;;;;;;11.87;2.13;;;7.50;99.90;;;;;;5112215;28;20457;-64
2021/03/17 08:03:57;;;;;;;8.77;2.17;;;7.50;99.90;;;;;;5101341;28;20504;-64
2021/03/17 08:06:24;;;;;;;9.20;2.63;;;7.60;99.90;;;;;;5098716;28;20462;-63
2021/03/17 08:08:50;;;;;;;12.80;2.43;;;7.50;99.90;;;;;;5102969;28;20472;-63
2021/03/17 08:11:19;;;;;;;11.50;2.50;;;7.10;99.90;;;;;;5116041;27;20464;-63
2021/03/17 08:13:48;;;;;;;8.13;1.87;;;7.20;99.90;;;;;;5117137;27;20449;-65
2021/03/17 08:16:20;;;;;;;10.13;2.20;;;6.90;99.90;;;;;;5100495;28;20454;-63
2021/03/17 08:18:48;;;;;;;6.83;1.90;;;6.60;99.90;;;;;;5103902;28;20444;-66
2021/03/17 08:21:46;;;;;;;8.13;2.30;;;6.30;99.90;;;;;;5100404;28;20447;-63
2021/03/17 08:24:46;;;;;;;9.00;1.90;;;5.70;99.90;;;;;;5111636;28;20484;-63
2021/03/17 08:27:21;;;;;;;8.10;2.17;;;5.50;99.90;;;;;;5109059;28;20485;-64
2021/03/17 08:29:49;;;;;;;8.77;2.33;;;5.70;99.90;;;;;;5102002;28;20619;-64
2021/03/17 08:32:17;;;;;;;7.93;1.73;;;5.90;99.90;;;;;;5106456;28;20425;-63
2021/03/17 08:34:52;;;;;;;7.33;2.20;;;6.10;99.90;;;;;;5101074;28;20452;-67
2021/03/17 08:37:20;;;;;;;9.07;1.87;;;6.30;99.90;;;;;;5107062;27;20539;-63
2021/03/17 08:39:48;;;;;;;12.87;1.80;;;6.40;99.90;;;;;;5110921;28;20453;-63
2021/03/17 08:42:26;;;;;;;8.17;2.27;;;6.50;99.90;;;;;;5114400;27;20578;-64
2021/03/17 08:44:53;;;;;;;9.30;2.20;;;6.60;99.90;;;;;;5112342;27;20440;-67
2021/03/17 08:47:21;;;;;;;8.67;2.30;;;6.80;99.90;;;;;;5110260;27;20486;-63
2021/03/17 08:49:50;;;;;;;8.00;1.90;;;6.70;99.90;;;;;;5108158;27;20459;-65
2021/03/17 08:52:19;;;;;;;9.47;1.70;;;6.60;99.90;;;;;;5111134;27;20460;-63
2021/03/17 08:55:08;;;;;;;7.57;1.63;;;6.80;99.90;;;;;;5111154;28;20452;-66
2021/03/17 08:58:00;;;;;;;7.77;2.10;;;6.90;99.90;;;;;;5111333;28;20473;-66
2021/03/17 09:00:56;;;;;;;9.17;2.40;;;7.00;99.90;;;;;;5105383;28;20508;-66
2021/03/17 09:03:45;;;;;;;6.03;1.43;;;7.00;99.90;;;;;;5109414;28;20481;-63
2021/03/17 09:06:14;;;;;;;9.87;2.30;;;7.00;99.90;;;;;;5101974;28;21023;-63
2021/03/17 09:09:03;;;;;;;9.50;2.23;;;7.10;99.90;;;;;;5114810;27;20487;-65
2021/03/17 09:12:00;;;;;;;7.07;2.00;;;7.30;99.90;;;;;;5102407;28;20476;-67
2021/03/17 09:14:35;;;;;;;7.50;1.90;;;7.50;99.90;;;;;;5103684;28;20563;-65
2021/03/17 09:17:40;;;;;;;10.50;2.87;;;7.80;99.90;;;;;;5092442;28;20446;-63
2021/03/17 09:20:22;;;;;;;11.77;2.70;;;7.70;99.90;;;;;;5108249;28;20454;-63
2021/03/17 09:23:04;;;;;;;9.40;2.40;;;7.90;99.90;;;;;;5112482;28;20480;-63
2021/03/17 09:25:34;;;;;;;9.13;2.17;;;8.50;99.90;;;;;;5102274;28;20446;-64
2021/03/17 09:28:03;;;;;;;11.03;2.00;;;8.70;99.90;;;;;;5102321;27;20825;-64
2021/03/17 09:30:36;;;;;;;9.23;1.87;;;9.30;99.90;;;;;;5121865;27;20523;-66
2021/03/17 09:33:14;;;;;;;9.30;1.50;;;8.90;99.90;;;;;;5121959;27;20949;-64
2021/03/17 09:35:42;;;;;;;8.43;1.67;;;8.70;99.90;;;;;;5108132;27;20531;-64
2021/03/17 09:38:13;;;;;;;10.83;2.27;;;8.70;99.90;;;;;;5122061;27;20464;-64
2021/03/17 09:40:50;;;;;;;9.77;2.07;;;8.50;99.90;;;;;;5096276;28;20556;-63
2021/03/17 09:43:34;;;;;;;12.97;2.20;;;8.40;99.90;;;;;;5110907;27;20482;-65
2021/03/17 09:46:01;;;;;;;8.40;2.00;;;8.70;99.90;;;;;;5107362;27;20449;-64
2021/03/17 09:48:27;;;;;;;7.13;1.40;;;8.80;99.90;;;;;;5109491;28;20451;-64
2021/03/17 09:50:59;;;;;;;9.33;1.93;;;9.00;99.90;;;;;;5116286;27;20450;-63
2021/03/17 09:53:25;;;;;;;7.10;1.50;;;8.70;99.90;;;;;;5106339;28;20453;-66
2021/03/17 09:55:53;;;;;;;9.50;1.80;;;9.00;99.90;;;;;;5106484;28;20456;-64
2021/03/17 09:58:23;;;;;;;6.60;1.27;;;8.90;99.90;;;;;;5105653;28;20454;-64
2021/03/17 10:00:50;;;;;;;9.83;1.67;;;9.10;99.90;;;;;;5102754;28;20441;-63
2021/03/17 10:03:16;;;;;;;6.57;1.50;;;9.40;99.90;;;;;;5115684;27;20841;-64
2021/03/17 10:05:43;;;;;;;7.80;1.70;;;9.70;99.90;;;;;;5108352;28;20454;-64
2021/03/17 10:08:10;;;;;;;10.87;1.60;;;10.60;99.90;;;;;;5095523;28;20449;-64
2021/03/17 10:10:38;;;;;;;8.40;1.73;;;10.60;99.90;;;;;;5108152;28;20785;-64
2021/03/17 10:13:05;;;;;;;9.57;2.10;;;11.10;99.90;;;;;;5100340;28;20449;-66
2021/03/17 10:15:32;;;;;;;8.13;2.00;;;11.20;99.90;;;;;;5110127;28;20283;-64
2021/03/17 10:17:58;;;;;;;11.13;1.80;;;11.90;99.90;;;;;;5098141;28;20546;-65
2021/03/17 10:20:27;;;;;;;9.50;1.73;;;11.40;99.90;;;;;;5112575;28;20453;-67
2021/03/17 10:22:58;;;;;;;9.77;1.57;;;11.00;99.90;;;;;;5106300;28;20482;-65
2021/03/17 10:25:27;;;;;;;8.17;1.87;;;11.20;99.90;;;;;;5108193;28;20532;-64
2021/03/17 10:28:04;;;;;;;5.73;1.50;;;12.60;99.90;;;;;;5106829;28;20461;-67
2021/03/17 10:30:33;;;;;;;7.13;1.90;;;13.00;99.90;;;;;;5102234;28;21007;-63
2021/03/17 10:33:01;;;;;;;5.90;1.50;;;13.30;99.90;;;;;;5106094;28;20546;-66
2021/03/17 10:35:29;;;;;;;5.20;1.20;;;13.20;99.90;;;;;;5104055;28;21141;-64
2021/03/17 10:37:57;;;;;;;7.00;1.60;;;15.00;99.90;;;;;;5107189;28;20453;-63
2021/03/17 10:40:25;;;;;;;4.10;1.30;;;17.70;99.90;;;;;;5102671;28;20488;-64
2021/03/17 10:42:55;;;;;;;7.30;1.30;;;18.30;99.90;;;;;;5111312;28;20564;-67
2021/03/17 10:45:23;;;;;;;7.20;1.47;;;17.80;97.70;;;;;;5098938;28;20535;-66
2021/03/17 10:47:51;;;;;;;4.87;1.10;;;16.60;92.20;;;;;;5098245;28;20453;-68
2021/03/17 10:50:27;;;;;;;5.27;1.20;;;15.60;91.90;;;;;;5112075;28;20457;-64
2021/03/17 10:52:54;;;;;;;6.60;1.37;;;14.70;94.80;;;;;;5109196;28;20447;-64
2021/03/17 10:55:22;;;;;;;6.63;1.20;;;13.60;95.70;;;;;;5111356;28;20552;-64
2021/03/17 10:57:49;;;;;;;4.03;1.00;;;13.00;97.50;;;;;;5113013;28;20455;-65
2021/03/17 11:00:25;;;;;;;5.60;1.10;;;12.20;98.00;;;;;;5114555;28;20817;-64
2021/03/17 11:02:53;;;;;;;5.30;1.20;;;12.00;99.90;;;;;;5110478;28;20568;-64
2021/03/17 11:05:32;;;;;;;10.87;1.70;;;11.90;99.90;;;;;;5114492;28;20575;-64
2021/03/17 11:08:07;;;;;;;5.90;1.60;;;11.20;99.90;;;;;;5104684;28;20907;-64
2021/03/17 11:10:49;;;;;;;5.20;1.17;;;10.70;99.90;;;;;;5109341;28;20969;-64
2021/03/17 11:13:39;;;;;;;5.33;1.53;;;10.30;99.90;;;;;;5110952;28;20461;-64
2021/03/17 11:16:14;;;;;;;6.07;1.40;;;10.00;99.90;;;;;;5105055;27;20506;-65
2021/03/17 11:18:50;;;;;;;5.30;1.30;;;9.60;99.90;;;;;;5108777;28;20448;-67
2021/03/17 11:21:22;;;;;;;4.13;1.10;;;9.70;99.90;;;;;;5108900;28;20826;-64
2021/03/17 11:23:48;;;;;;;7.30;1.23;;;9.20;99.90;;;;;;5115157;28;20481;-63
2021/03/17 11:26:23;;;;;;;5.60;1.60;;;9.00;99.90;;;;;;5114155;27;20473;-64
2021/03/17 11:28:50;;;;;;;5.47;1.40;;;8.70;99.90;;;;;;5115101;27;20551;-64
2021/03/17 11:31:28;;;;;;;7.90;1.97;;;8.60;99.90;;;;;;5105438;28;20544;-63
2021/03/17 11:33:55;;;;;;;4.70;1.20;;;8.40;99.90;;;;;;5102106;28;20791;-66
2021/03/17 11:36:22;;;;;;;7.20;1.30;;;8.40;99.90;;;;;;5106414;27;20686;-64
2021/03/17 11:38:49;;;;;;;10.10;1.70;;;8.40;99.90;;;;;;5098428;28;20461;-64
2021/03/17 11:41:16;;;;;;;5.10;1.53;;;8.50;99.90;;;;;;5108889;28;20446;-66
2021/03/17 11:43:42;;;;;;;8.33;1.70;;;8.60;99.90;;;;;;5109941;28;20482;-63
2021/03/17 11:46:09;;;;;;;9.50;2.17;;;8.80;99.90;;;;;;5113473;28;20449;-64
2021/03/17 11:48:36;;;;;;;7.90;1.67;;;8.90;99.90;;;;;;5102605;28;20817;-63
2021/03/17 11:51:06;;;;;;;6.63;1.67;;;9.30;99.90;;;;;;5113065;28;20461;-65
2021/03/17 11:53:35;;;;;;;6.37;1.70;;;9.90;99.90;;;;;;5114458;28;21005;-63
2021/03/17 11:56:02;;;;;;;5.10;1.40;;;10.90;99.90;;;;;;5099016;28;20495;-63
2021/03/17 11:58:28;;;;;;;5.90;1.43;;;11.60;99.90;;;;;;5105510;28;20454;-66
2021/03/17 12:00:55;;;;;;;5.37;2.13;;;12.20;99.90;;;;;;5110754;27;20459;-63
2021/03/17 12:03:21;;;;;;;5.33;1.50;;;12.80;99.90;;;;;;5113183;28;20481;-64
2021/03/17 12:05:48;;;;;;;9.10;1.70;;;12.70;99.90;;;;;;5113667;28;20517;-66
2021/03/17 12:08:15;;;;;;;7.80;1.43;;;12.40;99.90;;;;;;5113818;28;20938;-64
2021/03/17 12:10:42;;;;;;;5.93;1.60;;;12.20;99.90;;;;;;5096452;28;20442;-63
2021/03/17 12:13:08;;;;;;;5.30;1.20;;;11.90;99.90;;;;;;5103506;28;20445;-66
2021/03/17 12:15:36;;;;;;;8.40;1.53;;;11.70;99.90;;;;;;5106807;28;20449;-64
2021/03/17 12:18:03;;;;;;;6.83;1.17;;;11.50;99.90;;;;;;5114458;27;20441;-63
2021/03/17 12:20:31;;;;;;;5.40;1.30;;;11.20;99.90;;;;;;5116352;27;20445;-65
2021/03/17 12:22:58;;;;;;;8.17;1.50;;;11.00;99.90;;;;;;5100339;28;20473;-65
2021/03/17 12:25:25;;;;;;;6.10;1.57;;;11.00;99.90;;;;;;5108662;27;20528;-67
2021/03/17 12:27:51;;;;;;;7.77;1.20;;;13.00;99.90;;;;;;5109637;28;20537;-64
2021/03/17 12:30:20;;;;;;;5.60;1.30;;;14.10;99.90;;;;;;5109413;28;20464;-65
2021/03/17 12:32:49;;;;;;;6.23;1.90;;;14.10;99.90;;;;;;5114122;27;20569;-62
2021/03/17 12:35:17;;;;;;;5.00;1.33;;;14.00;99.70;;;;;;5108575;28;20449;-64
2021/03/17 12:37:45;;;;;;;4.50;1.40;;;13.90;98.00;;;;;;5108198;28;20953;-62
2021/03/17 12:40:13;;;;;;;7.30;1.60;;;13.20;97.40;;;;;;5105686;28;20453;-65
2021/03/17 12:42:42;;;;;;;6.20;1.37;;;12.30;98.40;;;;;;5109948;28;20572;-63
2021/03/17 12:45:11;;;;;;;3.90;1.23;;;11.80;98.60;;;;;;5108201;27;20460;-63
2021/03/17 12:47:38;;;;;;;6.40;1.40;;;11.50;99.30;;;;;;5110403;27;20442;-63
2021/03/17 12:50:07;;;;;;;9.10;2.30;;;11.20;99.90;;;;;;5117396;27;20445;-65
2021/03/17 12:52:33;;;;;;;4.17;1.30;;;10.90;99.90;;;;;;5115739;27;20449;-63
2021/03/17 12:55:00;;;;;;;4.23;1.40;;;11.10;99.90;;;;;;5114890;27;20441;-63
2021/03/17 12:57:26;;;;;;;4.73;1.20;;;10.90;99.90;;;;;;5102120;28;20453;-63
2021/03/17 12:59:56;;;;;;;6.27;1.37;;;10.90;99.90;;;;;;5106002;28;20506;-64
2021/03/17 13:02:22;;;;;;;5.90;1.97;;;10.80;99.90;;;;;;5112123;28;20449;-64
2021/03/17 13:04:48;;;;;;;7.33;1.63;;;10.20;99.90;;;;;;5109095;28;20450;-63
2021/03/17 13:07:15;;;;;;;5.63;1.50;;;10.20;99.90;;;;;;5109638;28;21039;-64